sensor_id;sensor_type;location;lat;lon;timestamp;pressure;altitude;pressure_sealevel;temperature;humidity
16255;BME280;8235;52.198;9.904;2023-08-21T00:00:14;101489.59;;;21.72;78.07
16255;BME280;8235;52.198;9.904;2023-08-21T00:02:41;101497.50;;;21.65;78.36
16255;BME280;8235;52.198;9.904;2023-08-21T00:05:07;101495.38;;;21.59;78.33
16255;BME280;8235;52.198;9.904;2023-08-21T00:07:35;101505.09;;;21.52;79.10
16255;BME280;8235;52.198;9.904;2023-08-21T00:10:01;101499.41;;;21.45;79.39
16255;BME280;8235;52.198;9.904;2023-08-21T00:12:28;101501.56;;;21.42;79.64
16255;BME280;8235;52.198;9.904;2023-08-21T00:14:54;101501.69;;;21.40;80.16
16255;BME280;8235;52.198;9.904;2023-08-21T00:17:22;101496.56;;;21.37;79.99
16255;BME280;8235;52.198;9.904;2023-08-21T00:19:49;101491.59;;;21.33;80.18
16255;BME280;8235;52.198;9.904;2023-08-21T00:22:15;101487.19;;;21.22;80.82
16255;BME280;8235;52.198;9.904;2023-08-21T00:24:42;101478.47;;;21.19;81.40
16255;BME280;8235;52.198;9.904;2023-08-21T00:27:09;101486.34;;;21.12;81.46
16255;BME280;8235;52.198;9.904;2023-08-21T00:29:35;101489.19;;;21.01;81.80
16255;BME280;8235;52.198;9.904;2023-08-21T00:32:02;101492.50;;;20.95;82.51
16255;BME280;8235;52.198;9.904;2023-08-21T00:34:29;101481.94;;;20.92;82.58
16255;BME280;8235;52.198;9.904;2023-08-21T00:36:56;101486.94;;;20.87;83.09
16255;BME280;8235;52.198;9.904;2023-08-21T00:39:22;101475.66;;;20.82;83.32
16255;BME280;8235;52.198;9.904;2023-08-21T00:41:49;101479.81;;;20.76;83.24
16255;BME280;8235;52.198;9.904;2023-08-21T00:44:15;101479.38;;;20.71;83.25
16255;BME280;8235;52.198;9.904;2023-08-21T00:46:42;101474.66;;;20.63;83.26
16255;BME280;8235;52.198;9.904;2023-08-21T00:49:09;101469.84;;;20.57;83.04
16255;BME280;8235;52.198;9.904;2023-08-21T00:51:37;101469.41;;;20.52;82.47
16255;BME280;8235;52.198;9.904;2023-08-21T00:54:04;101465.41;;;20.47;82.34
16255;BME280;8235;52.198;9.904;2023-08-21T00:56:30;101466.69;;;20.42;82.05
16255;BME280;8235;52.198;9.904;2023-08-21T00:58:57;101475.47;;;20.35;82.08
16255;BME280;8235;52.198;9.904;2023-08-21T01:01:24;101468.78;;;20.29;82.17
16255;BME280;8235;52.198;9.904;2023-08-21T01:03:51;101469.50;;;20.22;82.82
16255;BME280;8235;52.198;9.904;2023-08-21T01:06:18;101463.19;;;20.11;83.78
16255;BME280;8235;52.198;9.904;2023-08-21T01:08:53;101469.16;;;20.05;84.78
16255;BME280;8235;52.198;9.904;2023-08-21T01:11:27;101468.59;;;20.02;85.45
16255;BME280;8235;52.198;9.904;2023-08-21T01:14:03;101469.84;;;19.98;85.68
16255;BME280;8235;52.198;9.904;2023-08-21T01:16:33;101466.28;;;19.97;85.85
16255;BME280;8235;52.198;9.904;2023-08-21T01:19:01;101462.84;;;19.95;86.32
16255;BME280;8235;52.198;9.904;2023-08-21T01:21:29;101469.53;;;19.91;85.70
16255;BME280;8235;52.198;9.904;2023-08-21T01:23:57;101469.66;;;19.90;86.03
16255;BME280;8235;52.198;9.904;2023-08-21T01:26:23;101474.38;;;19.88;86.42
16255;BME280;8235;52.198;9.904;2023-08-21T01:28:50;101467.41;;;19.85;86.63
16255;BME280;8235;52.198;9.904;2023-08-21T01:31:23;101477.34;;;19.85;86.27
16255;BME280;8235;52.198;9.904;2023-08-21T01:33:53;101477.75;;;19.80;85.19
16255;BME280;8235;52.198;9.904;2023-08-21T01:36:23;101479.28;;;19.73;84.59
16255;BME280;8235;52.198;9.904;2023-08-21T01:38:49;101484.38;;;19.66;84.03
16255;BME280;8235;52.198;9.904;2023-08-21T01:41:17;101469.84;;;19.58;84.61
16255;BME280;8235;52.198;9.904;2023-08-21T01:43:44;101473.53;;;19.57;85.30
16255;BME280;8235;52.198;9.904;2023-08-21T01:46:11;101463.97;;;19.53;85.78
16255;BME280;8235;52.198;9.904;2023-08-21T01:48:38;101462.41;;;19.50;85.49
16255;BME280;8235;52.198;9.904;2023-08-21T01:51:05;101460.34;;;19.42;85.20
16255;BME280;8235;52.198;9.904;2023-08-21T01:53:31;101460.88;;;19.36;85.92
16255;BME280;8235;52.198;9.904;2023-08-21T01:55:57;101463.88;;;19.33;86.48
16255;BME280;8235;52.198;9.904;2023-08-21T01:58:25;101463.13;;;19.31;86.60
16255;BME280;8235;52.198;9.904;2023-08-21T02:00:52;101465.13;;;19.29;86.42
16255;BME280;8235;52.198;9.904;2023-08-21T02:03:18;101469.66;;;19.29;87.00
16255;BME280;8235;52.198;9.904;2023-08-21T02:05:45;101471.63;;;19.27;87.15
16255;BME280;8235;52.198;9.904;2023-08-21T02:08:13;101480.72;;;19.26;87.36
16255;BME280;8235;52.198;9.904;2023-08-21T02:10:47;101474.47;;;19.25;87.41
16255;BME280;8235;52.198;9.904;2023-08-21T02:13:14;101479.13;;;19.23;87.17
16255;BME280;8235;52.198;9.904;2023-08-21T02:15:42;101479.53;;;19.19;87.23
16255;BME280;8235;52.198;9.904;2023-08-21T02:18:08;101478.25;;;19.13;86.75
16255;BME280;8235;52.198;9.904;2023-08-21T02:20:35;101476.56;;;19.01;86.41
16255;BME280;8235;52.198;9.904;2023-08-21T02:23:01;101473.94;;;18.90;87.07
16255;BME280;8235;52.198;9.904;2023-08-21T02:25:29;101476.44;;;18.82;87.64
16255;BME280;8235;52.198;9.904;2023-08-21T02:27:55;101472.56;;;18.75;88.26
16255;BME280;8235;52.198;9.904;2023-08-21T02:30:22;101470.09;;;18.71;89.30
16255;BME280;8235;52.198;9.904;2023-08-21T02:32:51;101468.53;;;18.69;89.66
16255;BME280;8235;52.198;9.904;2023-08-21T02:35:18;101458.72;;;18.68;89.82
16255;BME280;8235;52.198;9.904;2023-08-21T02:37:44;101457.13;;;18.65;89.52
16255;BME280;8235;52.198;9.904;2023-08-21T02:40:11;101466.50;;;18.61;89.50
16255;BME280;8235;52.198;9.904;2023-08-21T02:42:38;101471.16;;;18.59;90.05
16255;BME280;8235;52.198;9.904;2023-08-21T02:45:05;101474.81;;;18.58;90.79
16255;BME280;8235;52.198;9.904;2023-08-21T02:47:35;101474.81;;;18.58;91.30
16255;BME280;8235;52.198;9.904;2023-08-21T02:50:03;101473.00;;;18.59;91.58
16255;BME280;8235;52.198;9.904;2023-08-21T02:52:30;101471.16;;;18.59;91.54
16255;BME280;8235;52.198;9.904;2023-08-21T02:54:56;101472.00;;;18.60;91.52
16255;BME280;8235;52.198;9.904;2023-08-21T02:57:23;101470.28;;;18.59;91.78
16255;BME280;8235;52.198;9.904;2023-08-21T02:59:50;101464.25;;;18.55;91.78
16255;BME280;8235;52.198;9.904;2023-08-21T03:02:17;101468.19;;;18.51;91.85
16255;BME280;8235;52.198;9.904;2023-08-21T03:04:43;101469.31;;;18.49;92.05
16255;BME280;8235;52.198;9.904;2023-08-21T03:07:11;101466.16;;;18.44;91.55
16255;BME280;8235;52.198;9.904;2023-08-21T03:09:39;101473.63;;;18.40;90.85
16255;BME280;8235;52.198;9.904;2023-08-21T03:12:06;101473.53;;;18.30;90.24
16255;BME280;8235;52.198;9.904;2023-08-21T03:14:33;101476.13;;;18.21;89.78
16255;BME280;8235;52.198;9.904;2023-08-21T03:17:00;101479.44;;;18.13;89.50
16255;BME280;8235;52.198;9.904;2023-08-21T03:19:26;101479.13;;;18.07;89.93
16255;BME280;8235;52.198;9.904;2023-08-21T03:21:53;101478.38;;;18.04;90.42
16255;BME280;8235;52.198;9.904;2023-08-21T03:24:21;101479.38;;;18.03;90.70
16255;BME280;8235;52.198;9.904;2023-08-21T03:26:47;101485.84;;;18.01;90.42
16255;BME280;8235;52.198;9.904;2023-08-21T03:29:14;101492.22;;;18.00;90.41
16255;BME280;8235;52.198;9.904;2023-08-21T03:31:40;101474.59;;;17.96;90.19
16255;BME280;8235;52.198;9.904;2023-08-21T03:34:07;101481.47;;;17.89;90.09
16255;BME280;8235;52.198;9.904;2023-08-21T03:36:34;101482.81;;;17.83;90.24
16255;BME280;8235;52.198;9.904;2023-08-21T03:39:02;101472.50;;;17.77;91.01
16255;BME280;8235;52.198;9.904;2023-08-21T03:41:32;101481.69;;;17.75;91.11
16255;BME280;8235;52.198;9.904;2023-08-21T03:43:58;101478.41;;;17.71;91.55
16255;BME280;8235;52.198;9.904;2023-08-21T03:46:25;101484.03;;;17.68;91.66
16255;BME280;8235;52.198;9.904;2023-08-21T03:48:51;101472.75;;;17.63;92.14
16255;BME280;8235;52.198;9.904;2023-08-21T03:51:18;101471.25;;;17.59;92.37
16255;BME280;8235;52.198;9.904;2023-08-21T03:53:44;101469.81;;;17.55;92.80
16255;BME280;8235;52.198;9.904;2023-08-21T03:56:11;101470.78;;;17.54;93.27
16255;BME280;8235;52.198;9.904;2023-08-21T03:58:39;101460.25;;;17.51;93.03
16255;BME280;8235;52.198;9.904;2023-08-21T04:01:05;101464.28;;;17.45;93.47
16255;BME280;8235;52.198;9.904;2023-08-21T04:03:32;101458.41;;;17.40;94.32
16255;BME280;8235;52.198;9.904;2023-08-21T04:05:59;101469.28;;;17.39;94.98
16255;BME280;8235;52.198;9.904;2023-08-21T04:08:25;101471.00;;;17.40;95.28
16255;BME280;8235;52.198;9.904;2023-08-21T04:10:52;101478.09;;;17.41;95.53
16255;BME280;8235;52.198;9.904;2023-08-21T04:13:18;101480.69;;;17.42;95.83
16255;BME280;8235;52.198;9.904;2023-08-21T04:15:48;101490.47;;;17.43;95.49
16255;BME280;8235;52.198;9.904;2023-08-21T04:18:16;101491.47;;;17.42;96.13
16255;BME280;8235;52.198;9.904;2023-08-21T04:20:42;101498.69;;;17.42;96.66
16255;BME280;8235;52.198;9.904;2023-08-21T04:23:09;101490.47;;;17.43;97.55
16255;BME280;8235;52.198;9.904;2023-08-21T04:25:35;101490.25;;;17.46;98.29
16255;BME280;8235;52.198;9.904;2023-08-21T04:28:02;101489.25;;;17.47;99.11
16255;BME280;8235;52.198;9.904;2023-08-21T04:30:29;101490.88;;;17.50;99.37
16255;BME280;8235;52.198;9.904;2023-08-21T04:32:56;101503.22;;;17.52;99.63
16255;BME280;8235;52.198;9.904;2023-08-21T04:35:24;101502.25;;;17.53;99.83
16255;BME280;8235;52.198;9.904;2023-08-21T04:37:51;101498.59;;;17.54;99.96
16255;BME280;8235;52.198;9.904;2023-08-21T04:40:17;101495.75;;;17.56;99.99
16255;BME280;8235;52.198;9.904;2023-08-21T04:42:46;101502.59;;;17.60;100.00
16255;BME280;8235;52.198;9.904;2023-08-21T04:45:12;101503.22;;;17.63;100.00
16255;BME280;8235;52.198;9.904;2023-08-21T04:47:39;101510.38;;;17.64;100.00
16255;BME280;8235;52.198;9.904;2023-08-21T04:50:07;101503.88;;;17.67;100.00
16255;BME280;8235;52.198;9.904;2023-08-21T04:52:34;101505.34;;;17.71;99.78
16255;BME280;8235;52.198;9.904;2023-08-21T04:55:00;101502.53;;;17.73;99.11
16255;BME280;8235;52.198;9.904;2023-08-21T04:57:27;101508.06;;;17.71;98.14
16255;BME280;8235;52.198;9.904;2023-08-21T04:59:53;101503.66;;;17.70;97.90
16255;BME280;8235;52.198;9.904;2023-08-21T05:02:20;101510.25;;;17.66;98.08
16255;BME280;8235;52.198;9.904;2023-08-21T05:04:46;101509.28;;;17.67;98.47
16255;BME280;8235;52.198;9.904;2023-08-21T05:07:14;101516.38;;;17.68;99.04
16255;BME280;8235;52.198;9.904;2023-08-21T05:09:41;101509.88;;;17.71;99.38
16255;BME280;8235;52.198;9.904;2023-08-21T05:12:08;101514.03;;;17.75;99.82
16255;BME280;8235;52.198;9.904;2023-08-21T05:14:34;101518.94;;;17.81;99.77
16255;BME280;8235;52.198;9.904;2023-08-21T05:17:02;101523.97;;;17.85;99.25
16255;BME280;8235;52.198;9.904;2023-08-21T05:19:28;101524.19;;;17.93;98.31
16255;BME280;8235;52.198;9.904;2023-08-21T05:21:55;101526.41;;;17.99;97.46
16255;BME280;8235;52.198;9.904;2023-08-21T05:24:22;101524.09;;;18.06;97.08
16255;BME280;8235;52.198;9.904;2023-08-21T05:26:49;101520.88;;;18.12;96.34
16255;BME280;8235;52.198;9.904;2023-08-21T05:29:15;101513.03;;;18.20;95.61
16255;BME280;8235;52.198;9.904;2023-08-21T05:31:42;101516.91;;;18.27;95.11
16255;BME280;8235;52.198;9.904;2023-08-21T05:34:08;101524.53;;;18.33;94.47
16255;BME280;8235;52.198;9.904;2023-08-21T05:36:35;101522.19;;;18.40;93.59
16255;BME280;8235;52.198;9.904;2023-08-21T05:39:02;101521.66;;;18.46;93.16
16255;BME280;8235;52.198;9.904;2023-08-21T05:41:32;101523.84;;;18.52;92.13
16255;BME280;8235;52.198;9.904;2023-08-21T05:43:58;101525.09;;;18.59;91.63
16255;BME280;8235;52.198;9.904;2023-08-21T05:46:25;101526.28;;;18.66;91.08
16255;BME280;8235;52.198;9.904;2023-08-21T05:48:51;101521.25;;;18.73;90.29
16255;BME280;8235;52.198;9.904;2023-08-21T05:51:18;101521.59;;;18.80;89.22
16255;BME280;8235;52.198;9.904;2023-08-21T05:53:44;101532.72;;;18.86;88.83
16255;BME280;8235;52.198;9.904;2023-08-21T05:56:11;101530.38;;;18.93;88.54
16255;BME280;8235;52.198;9.904;2023-08-21T05:58:39;101544.78;;;19.03;88.26
16255;BME280;8235;52.198;9.904;2023-08-21T06:01:05;101545.50;;;19.16;87.82
16255;BME280;8235;52.198;9.904;2023-08-21T06:03:32;101547.97;;;19.29;87.16
16255;BME280;8235;52.198;9.904;2023-08-21T06:05:58;101555.16;;;19.39;86.67
16255;BME280;8235;52.198;9.904;2023-08-21T06:08:25;101548.03;;;19.50;85.42
16255;BME280;8235;52.198;9.904;2023-08-21T06:10:51;101551.75;;;19.58;84.18
16255;BME280;8235;52.198;9.904;2023-08-21T06:13:18;101548.66;;;19.63;82.73
16255;BME280;8235;52.198;9.904;2023-08-21T06:15:46;101551.09;;;19.66;82.47
16255;BME280;8235;52.198;9.904;2023-08-21T06:18:13;101541.56;;;19.71;82.52
16255;BME280;8235;52.198;9.904;2023-08-21T06:20:40;101546.06;;;19.82;83.03
16255;BME280;8235;52.198;9.904;2023-08-21T06:23:07;101556.03;;;19.91;82.83
16255;BME280;8235;52.198;9.904;2023-08-21T06:25:34;101555.97;;;20.02;82.69
16255;BME280;8235;52.198;9.904;2023-08-21T06:28:00;101554.88;;;20.15;82.10
16255;BME280;8235;52.198;9.904;2023-08-21T06:30:27;101558.63;;;20.23;81.22
16255;BME280;8235;52.198;9.904;2023-08-21T06:32:55;101554.94;;;20.34;80.47
16255;BME280;8235;52.198;9.904;2023-08-21T06:35:21;101547.56;;;20.45;80.03
16255;BME280;8235;52.198;9.904;2023-08-21T06:37:48;101552.75;;;20.58;79.18
16255;BME280;8235;52.198;9.904;2023-08-21T06:40:15;101554.19;;;20.72;78.43
16255;BME280;8235;52.198;9.904;2023-08-21T06:42:41;101550.47;;;20.83;78.28
16255;BME280;8235;52.198;9.904;2023-08-21T06:45:08;101553.06;;;20.94;76.68
16255;BME280;8235;52.198;9.904;2023-08-21T06:47:35;101552.91;;;21.05;75.86
16255;BME280;8235;52.198;9.904;2023-08-21T06:50:03;101556.91;;;21.20;75.93
16255;BME280;8235;52.198;9.904;2023-08-21T06:52:29;101556.78;;;21.31;74.69
16255;BME280;8235;52.198;9.904;2023-08-21T06:54:56;101555.91;;;21.40;73.68
16255;BME280;8235;52.198;9.904;2023-08-21T06:57:22;101554.19;;;21.49;73.33
16255;BME280;8235;52.198;9.904;2023-08-21T06:59:49;101553.88;;;21.52;73.19
16255;BME280;8235;52.198;9.904;2023-08-21T07:02:15;101553.72;;;21.54;72.77
16255;BME280;8235;52.198;9.904;2023-08-21T07:04:42;101555.44;;;21.55;72.64
16255;BME280;8235;52.198;9.904;2023-08-21T07:07:10;101560.88;;;21.55;72.50
16255;BME280;8235;52.198;9.904;2023-08-21T07:09:36;101569.00;;;21.55;73.07
16255;BME280;8235;52.198;9.904;2023-08-21T07:12:03;101565.00;;;21.59;73.89
16255;BME280;8235;52.198;9.904;2023-08-21T07:14:30;101569.84;;;21.65;74.13
16255;BME280;8235;52.198;9.904;2023-08-21T07:16:56;101572.94;;;21.70;73.81
16255;BME280;8235;52.198;9.904;2023-08-21T07:19:23;101567.94;;;21.75;73.51
16255;BME280;8235;52.198;9.904;2023-08-21T07:21:49;101558.53;;;21.79;72.66
16255;BME280;8235;52.198;9.904;2023-08-21T07:24:17;101563.94;;;21.79;72.25
16255;BME280;8235;52.198;9.904;2023-08-21T07:26:43;101563.66;;;21.82;72.62
16255;BME280;8235;52.198;9.904;2023-08-21T07:29:10;101565.22;;;21.85;72.66
16255;BME280;8235;52.198;9.904;2023-08-21T07:31:36;101571.31;;;21.87;72.16
16255;BME280;8235;52.198;9.904;2023-08-21T07:34:03;101575.59;;;21.89;72.50
16255;BME280;8235;52.198;9.904;2023-08-21T07:36:31;101570.31;;;21.97;72.71
16255;BME280;8235;52.198;9.904;2023-08-21T07:38:57;101576.00;;;22.04;72.69
16255;BME280;8235;52.198;9.904;2023-08-21T07:41:25;101578.28;;;22.08;72.46
16255;BME280;8235;52.198;9.904;2023-08-21T07:43:52;101574.97;;;22.14;72.63
16255;BME280;8235;52.198;9.904;2023-08-21T07:46:18;101583.38;;;22.21;72.42
16255;BME280;8235;52.198;9.904;2023-08-21T07:48:45;101578.03;;;22.29;72.35
16255;BME280;8235;52.198;9.904;2023-08-21T07:51:11;101580.31;;;22.34;72.08
16255;BME280;8235;52.198;9.904;2023-08-21T07:53:38;101576.69;;;22.43;72.05
16255;BME280;8235;52.198;9.904;2023-08-21T07:56:05;101579.19;;;22.54;71.19
16255;BME280;8235;52.198;9.904;2023-08-21T07:58:33;101576.97;;;22.67;71.02
16255;BME280;8235;52.198;9.904;2023-08-21T08:00:59;101580.19;;;22.80;70.41
16255;BME280;8235;52.198;9.904;2023-08-21T08:03:26;101575.56;;;22.91;69.78
16255;BME280;8235;52.198;9.904;2023-08-21T08:05:53;101575.78;;;22.97;68.85
16255;BME280;8235;52.198;9.904;2023-08-21T08:08:19;101579.44;;;23.06;68.17
16255;BME280;8235;52.198;9.904;2023-08-21T08:10:45;101575.06;;;23.13;67.63
16255;BME280;8235;52.198;9.904;2023-08-21T08:13:12;101571.56;;;23.20;67.73
16255;BME280;8235;52.198;9.904;2023-08-21T08:15:40;101571.47;;;23.30;67.57
16255;BME280;8235;52.198;9.904;2023-08-21T08:18:10;101567.81;;;23.39;67.67
16255;BME280;8235;52.198;9.904;2023-08-21T08:20:37;101563.28;;;23.48;66.35
16255;BME280;8235;52.198;9.904;2023-08-21T08:23:04;101568.28;;;23.52;65.99
16255;BME280;8235;52.198;9.904;2023-08-21T08:25:31;101571.56;;;23.56;65.06
16255;BME280;8235;52.198;9.904;2023-08-21T08:27:57;101566.66;;;23.60;64.72
16255;BME280;8235;52.198;9.904;2023-08-21T08:30:24;101568.56;;;23.67;64.86
16255;BME280;8235;52.198;9.904;2023-08-21T08:32:51;101582.53;;;23.72;64.33
16255;BME280;8235;52.198;9.904;2023-08-21T08:35:18;101577.31;;;23.79;64.55
16255;BME280;8235;52.198;9.904;2023-08-21T08:37:44;101581.09;;;23.86;63.96
16255;BME280;8235;52.198;9.904;2023-08-21T08:40:11;101582.78;;;23.87;60.13
16255;BME280;8235;52.198;9.904;2023-08-21T08:42:38;101578.91;;;23.89;59.10
16255;BME280;8235;52.198;9.904;2023-08-21T08:45:05;101580.28;;;23.94;57.90
16255;BME280;8235;52.198;9.904;2023-08-21T08:47:32;101579.97;;;23.97;56.93
16255;BME280;8235;52.198;9.904;2023-08-21T08:50:03;101574.38;;;23.98;56.47
16255;BME280;8235;52.198;9.904;2023-08-21T08:52:31;101573.88;;;24.03;57.37
16255;BME280;8235;52.198;9.904;2023-08-21T08:55:00;101572.22;;;24.10;57.58
16255;BME280;8235;52.198;9.904;2023-08-21T08:57:27;101575.66;;;24.20;57.33
16255;BME280;8235;52.198;9.904;2023-08-21T08:59:53;101574.03;;;24.27;57.58
16255;BME280;8235;52.198;9.904;2023-08-21T09:02:20;101562.66;;;24.32;56.76
16255;BME280;8235;52.198;9.904;2023-08-21T09:04:46;101558.59;;;24.36;57.33
16255;BME280;8235;52.198;9.904;2023-08-21T09:07:17;101564.53;;;24.39;56.49
16255;BME280;8235;52.198;9.904;2023-08-21T09:09:46;101563.41;;;24.50;55.18
16255;BME280;8235;52.198;9.904;2023-08-21T09:12:14;101566.44;;;24.55;53.94
16255;BME280;8235;52.198;9.904;2023-08-21T09:14:42;101572.25;;;24.60;53.62
16255;BME280;8235;52.198;9.904;2023-08-21T09:17:09;101565.47;;;24.64;54.90
16255;BME280;8235;52.198;9.904;2023-08-21T09:19:35;101561.22;;;24.70;54.66
16255;BME280;8235;52.198;9.904;2023-08-21T09:22:09;101550.84;;;24.73;55.04
16255;BME280;8235;52.198;9.904;2023-08-21T09:24:37;101555.13;;;24.84;54.22
16255;BME280;8235;52.198;9.904;2023-08-21T09:27:13;101555.50;;;24.97;53.22
16255;BME280;8235;52.198;9.904;2023-08-21T09:29:40;101559.78;;;25.08;52.46
16255;BME280;8235;52.198;9.904;2023-08-21T09:32:07;101556.03;;;25.17;51.38
16255;BME280;8235;52.198;9.904;2023-08-21T09:34:34;101549.91;;;25.23;51.46
16255;BME280;8235;52.198;9.904;2023-08-21T09:37:04;101545.81;;;25.35;51.55
16255;BME280;8235;52.198;9.904;2023-08-21T09:39:32;101546.63;;;25.52;50.27
16255;BME280;8235;52.198;9.904;2023-08-21T09:42:00;101553.28;;;25.66;49.81
16255;BME280;8235;52.198;9.904;2023-08-21T09:44:27;101552.59;;;25.72;48.89
16255;BME280;8235;52.198;9.904;2023-08-21T09:46:53;101547.09;;;25.80;49.19
16255;BME280;8235;52.198;9.904;2023-08-21T09:49:20;101552.22;;;25.91;49.11
16255;BME280;8235;52.198;9.904;2023-08-21T09:51:48;101552.16;;;25.99;48.68
16255;BME280;8235;52.198;9.904;2023-08-21T09:54:14;101548.72;;;26.13;49.33
16255;BME280;8235;52.198;9.904;2023-08-21T09:56:41;101547.66;;;26.31;48.36
16255;BME280;8235;52.198;9.904;2023-08-21T09:59:10;101545.38;;;26.42;47.83
16255;BME280;8235;52.198;9.904;2023-08-21T10:01:38;101532.31;;;26.52;47.34
16255;BME280;8235;52.198;9.904;2023-08-21T10:04:05;101523.19;;;26.68;47.16
16255;BME280;8235;52.198;9.904;2023-08-21T10:06:33;101538.63;;;26.84;47.60
16255;BME280;8235;52.198;9.904;2023-08-21T10:09:02;101541.81;;;26.95;45.78
16255;BME280;8235;52.198;9.904;2023-08-21T10:11:29;101543.81;;;27.02;46.11
16255;BME280;8235;52.198;9.904;2023-08-21T10:13:56;101540.34;;;27.08;45.49
16255;BME280;8235;52.198;9.904;2023-08-21T10:16:24;101541.69;;;27.12;45.66
16255;BME280;8235;52.198;9.904;2023-08-21T10:18:51;101544.53;;;27.18;45.30
16255;BME280;8235;52.198;9.904;2023-08-21T10:21:19;101536.25;;;27.26;44.56
16255;BME280;8235;52.198;9.904;2023-08-21T10:23:46;101545.91;;;27.37;45.64
16255;BME280;8235;52.198;9.904;2023-08-21T10:26:13;101532.63;;;27.49;44.94
16255;BME280;8235;52.198;9.904;2023-08-21T10:28:44;101528.59;;;27.59;44.81
16255;BME280;8235;52.198;9.904;2023-08-21T10:31:34;101535.69;;;27.69;45.32
16255;BME280;8235;52.198;9.904;2023-08-21T10:34:02;101528.81;;;27.73;45.01
16255;BME280;8235;52.198;9.904;2023-08-21T10:39:38;101536.38;;;27.71;45.24
16255;BME280;8235;52.198;9.904;2023-08-21T10:42:06;101539.78;;;27.73;46.41
16255;BME280;8235;52.198;9.904;2023-08-21T10:44:46;101535.81;;;27.75;45.89
16255;BME280;8235;52.198;9.904;2023-08-21T10:47:16;101534.97;;;27.75;45.95
16255;BME280;8235;52.198;9.904;2023-08-21T10:49:44;101527.00;;;27.80;45.62
16255;BME280;8235;52.198;9.904;2023-08-21T10:52:11;101534.19;;;27.81;45.34
16255;BME280;8235;52.198;9.904;2023-08-21T10:54:45;101539.66;;;27.81;44.91
16255;BME280;8235;52.198;9.904;2023-08-21T10:57:13;101530.97;;;27.77;44.36
16255;BME280;8235;52.198;9.904;2023-08-21T10:59:49;101527.69;;;27.82;44.52
16255;BME280;8235;52.198;9.904;2023-08-21T11:02:17;101509.66;;;27.87;44.07
16255;BME280;8235;52.198;9.904;2023-08-21T11:04:44;101519.38;;;27.90;43.43
16255;BME280;8235;52.198;9.904;2023-08-21T11:07:10;101511.16;;;27.90;44.01
16255;BME280;8235;52.198;9.904;2023-08-21T11:09:38;101520.72;;;27.94;43.61
16255;BME280;8235;52.198;9.904;2023-08-21T11:12:08;101526.44;;;27.99;44.56
16255;BME280;8235;52.198;9.904;2023-08-21T11:14:37;101516.25;;;28.08;44.45
16255;BME280;8235;52.198;9.904;2023-08-21T11:17:04;101514.00;;;28.11;44.33
16255;BME280;8235;52.198;9.904;2023-08-21T11:19:32;101515.94;;;28.17;44.24
16255;BME280;8235;52.198;9.904;2023-08-21T11:21:59;101519.38;;;28.19;43.66
16255;BME280;8235;52.198;9.904;2023-08-21T11:24:30;101518.69;;;28.17;44.29
16255;BME280;8235;52.198;9.904;2023-08-21T11:26:57;101516.91;;;28.24;44.48
16255;BME280;8235;52.198;9.904;2023-08-21T11:29:24;101519.16;;;28.36;44.14
16255;BME280;8235;52.198;9.904;2023-08-21T11:31:51;101522.16;;;28.41;44.24
16255;BME280;8235;52.198;9.904;2023-08-21T11:34:18;101514.88;;;28.48;43.79
16255;BME280;8235;52.198;9.904;2023-08-21T11:36:46;101501.81;;;28.50;43.64
16255;BME280;8235;52.198;9.904;2023-08-21T11:39:13;101510.50;;;28.53;43.01
16255;BME280;8235;52.198;9.904;2023-08-21T11:41:55;101514.28;;;28.52;42.91
16255;BME280;8235;52.198;9.904;2023-08-21T11:44:22;101514.94;;;28.54;42.71
16255;BME280;8235;52.198;9.904;2023-08-21T11:46:51;101500.00;;;28.57;42.76
16255;BME280;8235;52.198;9.904;2023-08-21T11:49:18;101507.00;;;28.59;42.95
16255;BME280;8235;52.198;9.904;2023-08-21T11:51:48;101500.28;;;28.62;43.64
16255;BME280;8235;52.198;9.904;2023-08-21T11:54:17;101504.53;;;28.64;43.62
16255;BME280;8235;52.198;9.904;2023-08-21T11:56:43;101513.19;;;28.68;44.00
16255;BME280;8235;52.198;9.904;2023-08-21T11:59:10;101506.28;;;28.72;43.69
16255;BME280;8235;52.198;9.904;2023-08-21T12:01:37;101509.09;;;28.79;43.41
16255;BME280;8235;52.198;9.904;2023-08-21T12:04:14;101504.09;;;28.82;42.94
16255;BME280;8235;52.198;9.904;2023-08-21T12:06:43;101508.97;;;28.87;43.50
16255;BME280;8235;52.198;9.904;2023-08-21T12:09:11;101510.28;;;28.91;43.54
16255;BME280;8235;52.198;9.904;2023-08-21T12:11:38;101507.34;;;28.92;42.56
16255;BME280;8235;52.198;9.904;2023-08-21T12:14:05;101508.41;;;28.91;42.99
16255;BME280;8235;52.198;9.904;2023-08-21T12:16:31;101517.66;;;28.90;43.17
16255;BME280;8235;52.198;9.904;2023-08-21T12:18:57;101517.28;;;28.93;43.37
16255;BME280;8235;52.198;9.904;2023-08-21T12:21:24;101512.66;;;28.94;42.99
16255;BME280;8235;52.198;9.904;2023-08-21T12:23:51;101505.06;;;28.96;43.14
16255;BME280;8235;52.198;9.904;2023-08-21T12:26:18;101493.06;;;28.97;42.14
16255;BME280;8235;52.198;9.904;2023-08-21T12:28:46;101483.59;;;28.99;42.99
16255;BME280;8235;52.198;9.904;2023-08-21T12:31:13;101486.56;;;29.05;42.59
16255;BME280;8235;52.198;9.904;2023-08-21T12:33:40;101488.06;;;29.07;41.60
16255;BME280;8235;52.198;9.904;2023-08-21T12:36:06;101492.91;;;29.05;41.98
16255;BME280;8235;52.198;9.904;2023-08-21T12:38:34;101496.97;;;29.09;42.98
16255;BME280;8235;52.198;9.904;2023-08-21T12:41:01;101501.13;;;29.05;42.16
16255;BME280;8235;52.198;9.904;2023-08-21T12:43:30;101498.16;;;29.00;41.71
16255;BME280;8235;52.198;9.904;2023-08-21T12:45:56;101502.53;;;28.94;41.82
16255;BME280;8235;52.198;9.904;2023-08-21T12:48:23;101505.00;;;28.89;42.40
16255;BME280;8235;52.198;9.904;2023-08-21T12:50:49;101497.16;;;28.86;43.39
16255;BME280;8235;52.198;9.904;2023-08-21T12:53:16;101500.03;;;28.78;42.24
16255;BME280;8235;52.198;9.904;2023-08-21T12:55:43;101498.44;;;28.69;42.36
16255;BME280;8235;52.198;9.904;2023-08-21T12:58:09;101494.41;;;28.65;42.27
16255;BME280;8235;52.198;9.904;2023-08-21T13:00:40;101493.56;;;28.64;41.63
16255;BME280;8235;52.198;9.904;2023-08-21T13:03:06;101496.94;;;28.66;42.45